sensor_id;sensor_type;location;lat;lon;timestamp;P1;durP1;ratioP1;P2;durP2;ratioP2
33880;SDS011;20172;47.530;10.256;2022-08-06T00:01:48;3.72;;;2.30;;
33880;SDS011;20172;47.530;10.256;2022-08-06T00:04:13;6.37;;;2.80;;
33880;SDS011;20172;47.530;10.256;2022-08-06T00:06:39;5.00;;;3.00;;
33880;SDS011;20172;47.530;10.256;2022-08-06T00:09:05;5.53;;;2.88;;
33880;SDS011;20172;47.530;10.256;2022-08-06T00:11:31;5.40;;;2.97;;
33880;SDS011;20172;47.530;10.256;2022-08-06T00:13:56;5.60;;;3.00;;
33880;SDS011;20172;47.530;10.256;2022-08-06T00:16:22;6.45;;;3.40;;
33880;SDS011;20172;47.530;10.256;2022-08-06T00:18:48;5.10;;;3.27;;
33880;SDS011;20172;47.530;10.256;2022-08-06T00:21:13;5.73;;;3.17;;
33880;SDS011;20172;47.530;10.256;2022-08-06T00:23:39;4.72;;;3.25;;
33880;SDS011;20172;47.530;10.256;2022-08-06T00:26:05;5.43;;;3.13;;
33880;SDS011;20172;47.530;10.256;2022-08-06T00:28:30;4.63;;;2.90;;
33880;SDS011;20172;47.530;10.256;2022-08-06T00:30:56;5.17;;;3.03;;
33880;SDS011;20172;47.530;10.256;2022-08-06T00:33:22;5.03;;;3.10;;
33880;SDS011;20172;47.530;10.256;2022-08-06T00:35:48;5.10;;;3.20;;
33880;SDS011;20172;47.530;10.256;2022-08-06T00:38:13;5.68;;;3.10;;
33880;SDS011;20172;47.530;10.256;2022-08-06T00:40:39;5.50;;;2.90;;
33880;SDS011;20172;47.530;10.256;2022-08-06T00:43:06;5.10;;;3.00;;
33880;SDS011;20172;47.530;10.256;2022-08-06T00:45:32;5.43;;;2.97;;
33880;SDS011;20172;47.530;10.256;2022-08-06T00:47:59;4.40;;;3.03;;
33880;SDS011;20172;47.530;10.256;2022-08-06T00:50:26;5.70;;;3.30;;
33880;SDS011;20172;47.530;10.256;2022-08-06T00:52:52;5.65;;;3.40;;
33880;SDS011;20172;47.530;10.256;2022-08-06T00:55:17;4.88;;;2.92;;
33880;SDS011;20172;47.530;10.256;2022-08-06T00:57:44;6.70;;;3.60;;
33880;SDS011;20172;47.530;10.256;2022-08-06T01:00:10;7.07;;;3.27;;
33880;SDS011;20172;47.530;10.256;2022-08-06T01:02:36;4.88;;;3.50;;
33880;SDS011;20172;47.530;10.256;2022-08-06T01:05:02;6.67;;;2.97;;
33880;SDS011;20172;47.530;10.256;2022-08-06T01:07:28;5.28;;;2.70;;
33880;SDS011;20172;47.530;10.256;2022-08-06T01:09:54;4.70;;;2.97;;
33880;SDS011;20172;47.530;10.256;2022-08-06T01:12:19;5.67;;;3.03;;
33880;SDS011;20172;47.530;10.256;2022-08-06T01:14:45;5.30;;;3.07;;
33880;SDS011;20172;47.530;10.256;2022-08-06T01:19:58;5.82;;;3.30;;
33880;SDS011;20172;47.530;10.256;2022-08-06T01:28:42;4.78;;;3.05;;
33880;SDS011;20172;47.530;10.256;2022-08-06T01:31:13;5.30;;;3.00;;
33880;SDS011;20172;47.530;10.256;2022-08-06T01:33:45;5.67;;;3.33;;
33880;SDS011;20172;47.530;10.256;2022-08-06T01:36:19;5.65;;;2.92;;
33880;SDS011;20172;47.530;10.256;2022-08-06T01:38:49;4.63;;;3.20;;
33880;SDS011;20172;47.530;10.256;2022-08-06T01:41:21;6.35;;;3.67;;
33880;SDS011;20172;47.530;10.256;2022-08-06T01:44:08;5.40;;;3.20;;
33880;SDS011;20172;47.530;10.256;2022-08-06T01:46:36;5.20;;;3.08;;
33880;SDS011;20172;47.530;10.256;2022-08-06T01:49:06;6.38;;;4.00;;
33880;SDS011;20172;47.530;10.256;2022-08-06T01:51:34;5.13;;;3.28;;
33880;SDS011;20172;47.530;10.256;2022-08-06T01:54:02;6.78;;;3.78;;
33880;SDS011;20172;47.530;10.256;2022-08-06T01:56:31;6.57;;;3.92;;
33880;SDS011;20172;47.530;10.256;2022-08-06T01:59:02;5.80;;;3.80;;
33880;SDS011;20172;47.530;10.256;2022-08-06T02:01:29;4.60;;;3.40;;
33880;SDS011;20172;47.530;10.256;2022-08-06T02:03:58;5.50;;;3.50;;
33880;SDS011;20172;47.530;10.256;2022-08-06T02:06:30;4.83;;;3.10;;
33880;SDS011;20172;47.530;10.256;2022-08-06T02:09:00;8.15;;;3.83;;
33880;SDS011;20172;47.530;10.256;2022-08-06T02:11:29;5.68;;;3.35;;
33880;SDS011;20172;47.530;10.256;2022-08-06T02:13:57;5.53;;;3.30;;
33880;SDS011;20172;47.530;10.256;2022-08-06T02:16:25;5.10;;;3.20;;
33880;SDS011;20172;47.530;10.256;2022-08-06T02:19:04;7.07;;;3.70;;
33880;SDS011;20172;47.530;10.256;2022-08-06T02:21:32;5.57;;;3.27;;
33880;SDS011;20172;47.530;10.256;2022-08-06T02:24:02;6.10;;;3.50;;
33880;SDS011;20172;47.530;10.256;2022-08-06T02:26:31;5.10;;;3.17;;
33880;SDS011;20172;47.530;10.256;2022-08-06T02:29:01;5.90;;;3.40;;
33880;SDS011;20172;47.530;10.256;2022-08-06T02:31:29;4.95;;;3.50;;
33880;SDS011;20172;47.530;10.256;2022-08-06T02:33:54;5.78;;;3.17;;
33880;SDS011;20172;47.530;10.256;2022-08-06T02:36:40;5.25;;;3.08;;
33880;SDS011;20172;47.530;10.256;2022-08-06T02:39:11;5.90;;;3.28;;
33880;SDS011;20172;47.530;10.256;2022-08-06T02:41:49;4.65;;;3.33;;
33880;SDS011;20172;47.530;10.256;2022-08-06T02:44:36;6.35;;;3.35;;
33880;SDS011;20172;47.530;10.256;2022-08-06T02:47:10;5.95;;;3.40;;
33880;SDS011;20172;47.530;10.256;2022-08-06T02:49:57;6.45;;;3.22;;
33880;SDS011;20172;47.530;10.256;2022-08-06T02:52:30;3.75;;;2.58;;
33880;SDS011;20172;47.530;10.256;2022-08-06T02:55:00;7.73;;;3.53;;
33880;SDS011;20172;47.530;10.256;2022-08-06T02:57:33;5.22;;;2.72;;
33880;SDS011;20172;47.530;10.256;2022-08-06T03:00:07;7.25;;;3.15;;
33880;SDS011;20172;47.530;10.256;2022-08-06T03:02:35;6.70;;;3.28;;
33880;SDS011;20172;47.530;10.256;2022-08-06T03:05:04;5.07;;;3.03;;
33880;SDS011;20172;47.530;10.256;2022-08-06T03:07:32;5.00;;;3.13;;
33880;SDS011;20172;47.530;10.256;2022-08-06T03:10:00;4.65;;;2.70;;
33880;SDS011;20172;47.530;10.256;2022-08-06T03:12:27;6.07;;;3.15;;
33880;SDS011;20172;47.530;10.256;2022-08-06T03:14:53;5.00;;;2.90;;
33880;SDS011;20172;47.530;10.256;2022-08-06T03:17:20;4.63;;;2.70;;
33880;SDS011;20172;47.530;10.256;2022-08-06T03:19:48;6.30;;;3.35;;
33880;SDS011;20172;47.530;10.256;2022-08-06T03:22:16;4.72;;;2.95;;
33880;SDS011;20172;47.530;10.256;2022-08-06T03:24:42;5.20;;;3.08;;
33880;SDS011;20172;47.530;10.256;2022-08-06T03:27:10;6.15;;;2.80;;
33880;SDS011;20172;47.530;10.256;2022-08-06T03:29:37;6.57;;;3.30;;
33880;SDS011;20172;47.530;10.256;2022-08-06T03:32:06;6.57;;;3.10;;
33880;SDS011;20172;47.530;10.256;2022-08-06T03:34:32;5.32;;;3.17;;
33880;SDS011;20172;47.530;10.256;2022-08-06T03:36:59;4.28;;;2.83;;
33880;SDS011;20172;47.530;10.256;2022-08-06T03:39:27;6.50;;;3.20;;
33880;SDS011;20172;47.530;10.256;2022-08-06T03:41:55;5.43;;;3.10;;
33880;SDS011;20172;47.530;10.256;2022-08-06T03:44:22;4.97;;;3.50;;
33880;SDS011;20172;47.530;10.256;2022-08-06T03:46:54;5.10;;;2.90;;
33880;SDS011;20172;47.530;10.256;2022-08-06T03:49:38;4.15;;;2.75;;
33880;SDS011;20172;47.530;10.256;2022-08-06T03:52:07;4.70;;;3.03;;
33880;SDS011;20172;47.530;10.256;2022-08-06T03:54:38;4.65;;;2.63;;
33880;SDS011;20172;47.530;10.256;2022-08-06T03:57:11;4.30;;;2.95;;
33880;SDS011;20172;47.530;10.256;2022-08-06T03:59:41;4.70;;;2.97;;
33880;SDS011;20172;47.530;10.256;2022-08-06T04:02:09;7.97;;;3.50;;
33880;SDS011;20172;47.530;10.256;2022-08-06T04:04:36;4.97;;;2.75;;
33880;SDS011;20172;47.530;10.256;2022-08-06T04:07:02;4.82;;;2.88;;
33880;SDS011;20172;47.530;10.256;2022-08-06T04:09:29;4.47;;;3.00;;
33880;SDS011;20172;47.530;10.256;2022-08-06T04:11:56;6.32;;;3.83;;
33880;SDS011;20172;47.530;10.256;2022-08-06T04:14:23;6.32;;;3.40;;
33880;SDS011;20172;47.530;10.256;2022-08-06T04:16:48;6.10;;;3.88;;
33880;SDS011;20172;47.530;10.256;2022-08-06T04:19:15;4.80;;;3.65;;
33880;SDS011;20172;47.530;10.256;2022-08-06T04:21:44;8.45;;;4.00;;
33880;SDS011;20172;47.530;10.256;2022-08-06T04:24:10;6.33;;;4.33;;
33880;SDS011;20172;47.530;10.256;2022-08-06T04:26:37;6.82;;;4.35;;
33880;SDS011;20172;47.530;10.256;2022-08-06T04:29:05;5.72;;;4.38;;
33880;SDS011;20172;47.530;10.256;2022-08-06T04:31:33;7.20;;;4.27;;
33880;SDS011;20172;47.530;10.256;2022-08-06T04:34:01;6.50;;;4.15;;
33880;SDS011;20172;47.530;10.256;2022-08-06T04:36:28;7.38;;;4.05;;
33880;SDS011;20172;47.530;10.256;2022-08-06T04:38:54;5.88;;;4.22;;
33880;SDS011;20172;47.530;10.256;2022-08-06T04:41:20;5.40;;;4.13;;
33880;SDS011;20172;47.530;10.256;2022-08-06T04:43:47;8.20;;;3.80;;
33880;SDS011;20172;47.530;10.256;2022-08-06T04:46:13;5.18;;;3.53;;
33880;SDS011;20172;47.530;10.256;2022-08-06T04:48:39;6.70;;;4.07;;
33880;SDS011;20172;47.530;10.256;2022-08-06T04:51:05;5.77;;;4.00;;
33880;SDS011;20172;47.530;10.256;2022-08-06T04:53:38;5.95;;;3.20;;
33880;SDS011;20172;47.530;10.256;2022-08-06T04:56:05;6.32;;;4.10;;
33880;SDS011;20172;47.530;10.256;2022-08-06T04:58:32;7.25;;;3.97;;
33880;SDS011;20172;47.530;10.256;2022-08-06T05:00:59;5.68;;;3.50;;
33880;SDS011;20172;47.530;10.256;2022-08-06T05:03:26;4.10;;;2.93;;
33880;SDS011;20172;47.530;10.256;2022-08-06T05:08:58;6.33;;;3.83;;
33880;SDS011;20172;47.530;10.256;2022-08-06T05:11:29;5.43;;;3.50;;
33880;SDS011;20172;47.530;10.256;2022-08-06T05:14:01;5.22;;;3.83;;
33880;SDS011;20172;47.530;10.256;2022-08-06T05:16:30;5.43;;;3.40;;
33880;SDS011;20172;47.530;10.256;2022-08-06T05:19:00;6.30;;;3.60;;
33880;SDS011;20172;47.530;10.256;2022-08-06T05:21:30;6.78;;;3.97;;
33880;SDS011;20172;47.530;10.256;2022-08-06T05:24:00;5.18;;;3.10;;
33880;SDS011;20172;47.530;10.256;2022-08-06T05:26:27;7.15;;;3.53;;
33880;SDS011;20172;47.530;10.256;2022-08-06T05:28:53;5.40;;;3.50;;
33880;SDS011;20172;47.530;10.256;2022-08-06T05:31:29;5.80;;;4.28;;
33880;SDS011;20172;47.530;10.256;2022-08-06T05:33:56;6.38;;;3.60;;
33880;SDS011;20172;47.530;10.256;2022-08-06T05:36:21;6.27;;;3.53;;
33880;SDS011;20172;47.530;10.256;2022-08-06T05:38:47;6.25;;;3.78;;
33880;SDS011;20172;47.530;10.256;2022-08-06T05:41:13;4.43;;;3.00;;
33880;SDS011;20172;47.530;10.256;2022-08-06T05:43:39;5.43;;;3.80;;
33880;SDS011;20172;47.530;10.256;2022-08-06T05:46:08;5.15;;;3.55;;
33880;SDS011;20172;47.530;10.256;2022-08-06T05:48:37;5.10;;;3.00;;
33880;SDS011;20172;47.530;10.256;2022-08-06T05:51:09;7.10;;;4.00;;
33880;SDS011;20172;47.530;10.256;2022-08-06T05:53:46;7.45;;;4.05;;
33880;SDS011;20172;47.530;10.256;2022-08-06T05:56:27;4.90;;;3.47;;
33880;SDS011;20172;47.530;10.256;2022-08-06T05:59:03;5.33;;;3.70;;
33880;SDS011;20172;47.530;10.256;2022-08-06T06:01:32;5.25;;;3.60;;
33880;SDS011;20172;47.530;10.256;2022-08-06T06:04:00;5.37;;;3.70;;
33880;SDS011;20172;47.530;10.256;2022-08-06T06:06:27;7.57;;;4.15;;
33880;SDS011;20172;47.530;10.256;2022-08-06T06:08:53;28.73;;;13.93;;
33880;SDS011;20172;47.530;10.256;2022-08-06T06:11:19;16.88;;;11.23;;
33880;SDS011;20172;47.530;10.256;2022-08-06T06:13:47;6.80;;;4.07;;
33880;SDS011;20172;47.530;10.256;2022-08-06T06:19:09;4.97;;;3.55;;
33880;SDS011;20172;47.530;10.256;2022-08-06T06:29:13;4.85;;;3.63;;
33880;SDS011;20172;47.530;10.256;2022-08-06T06:32:11;4.22;;;2.88;;
33880;SDS011;20172;47.530;10.256;2022-08-06T06:37:50;5.85;;;3.05;;
33880;SDS011;20172;47.530;10.256;2022-08-06T06:46:15;6.30;;;3.33;;
33880;SDS011;20172;47.530;10.256;2022-08-06T06:48:53;5.00;;;2.90;;
33880;SDS011;20172;47.530;10.256;2022-08-06T06:51:32;5.47;;;3.00;;
33880;SDS011;20172;47.530;10.256;2022-08-06T06:54:01;4.45;;;3.25;;
33880;SDS011;20172;47.530;10.256;2022-08-06T06:56:31;5.10;;;3.70;;
33880;SDS011;20172;47.530;10.256;2022-08-06T06:59:02;5.85;;;3.38;;
33880;SDS011;20172;47.530;10.256;2022-08-06T07:01:32;6.07;;;3.55;;
33880;SDS011;20172;47.530;10.256;2022-08-06T07:04:00;9.35;;;4.25;;
33880;SDS011;20172;47.530;10.256;2022-08-06T07:06:30;5.20;;;3.70;;
33880;SDS011;20172;47.530;10.256;2022-08-06T07:08:57;6.13;;;5.10;;
33880;SDS011;20172;47.530;10.256;2022-08-06T07:11:24;8.07;;;5.85;;
33880;SDS011;20172;47.530;10.256;2022-08-06T07:13:51;6.75;;;5.60;;
33880;SDS011;20172;47.530;10.256;2022-08-06T07:16:21;8.50;;;6.38;;
33880;SDS011;20172;47.530;10.256;2022-08-06T07:18:51;8.38;;;6.75;;
33880;SDS011;20172;47.530;10.256;2022-08-06T07:21:18;9.97;;;7.00;;
33880;SDS011;20172;47.530;10.256;2022-08-06T07:23:45;9.40;;;7.60;;
33880;SDS011;20172;47.530;10.256;2022-08-06T07:26:20;9.00;;;7.53;;
33880;SDS011;20172;47.530;10.256;2022-08-06T07:28:48;8.98;;;6.93;;
33880;SDS011;20172;47.530;10.256;2022-08-06T07:31:16;9.45;;;7.32;;
33880;SDS011;20172;47.530;10.256;2022-08-06T07:33:43;7.63;;;5.90;;
33880;SDS011;20172;47.530;10.256;2022-08-06T07:36:11;9.25;;;5.97;;
33880;SDS011;20172;47.530;10.256;2022-08-06T07:38:41;7.45;;;5.38;;
33880;SDS011;20172;47.530;10.256;2022-08-06T07:41:09;6.78;;;4.95;;
33880;SDS011;20172;47.530;10.256;2022-08-06T07:43:41;7.68;;;4.38;;
33880;SDS011;20172;47.530;10.256;2022-08-06T07:46:14;6.57;;;4.25;;
33880;SDS011;20172;47.530;10.256;2022-08-06T07:49:03;6.15;;;4.00;;
33880;SDS011;20172;47.530;10.256;2022-08-06T07:51:33;4.70;;;3.03;;
33880;SDS011;20172;47.530;10.256;2022-08-06T07:54:01;5.57;;;3.60;;
33880;SDS011;20172;47.530;10.256;2022-08-06T07:56:28;4.80;;;3.30;;
33880;SDS011;20172;47.530;10.256;2022-08-06T07:58:59;5.88;;;3.40;;
33880;SDS011;20172;47.530;10.256;2022-08-06T08:01:27;5.05;;;3.60;;
33880;SDS011;20172;47.530;10.256;2022-08-06T08:03:55;5.65;;;3.55;;
33880;SDS011;20172;47.530;10.256;2022-08-06T08:06:40;5.47;;;3.93;;
33880;SDS011;20172;47.530;10.256;2022-08-06T08:09:08;4.75;;;3.33;;
33880;SDS011;20172;47.530;10.256;2022-08-06T08:11:38;4.93;;;3.20;;
33880;SDS011;20172;47.530;10.256;2022-08-06T08:14:06;5.93;;;3.10;;
33880;SDS011;20172;47.530;10.256;2022-08-06T08:16:34;5.32;;;3.35;;
33880;SDS011;20172;47.530;10.256;2022-08-06T08:19:01;5.00;;;3.15;;
33880;SDS011;20172;47.530;10.256;2022-08-06T08:21:27;5.78;;;3.60;;
33880;SDS011;20172;47.530;10.256;2022-08-06T08:23:54;4.80;;;3.40;;
33880;SDS011;20172;47.530;10.256;2022-08-06T08:26:21;5.10;;;3.30;;
33880;SDS011;20172;47.530;10.256;2022-08-06T08:28:47;5.87;;;3.57;;
33880;SDS011;20172;47.530;10.256;2022-08-06T08:31:13;5.47;;;3.43;;
33880;SDS011;20172;47.530;10.256;2022-08-06T08:33:39;4.38;;;2.65;;
33880;SDS011;20172;47.530;10.256;2022-08-06T08:36:05;4.15;;;2.70;;
33880;SDS011;20172;47.530;10.256;2022-08-06T08:38:32;5.60;;;2.88;;
33880;SDS011;20172;47.530;10.256;2022-08-06T08:41:00;4.20;;;2.55;;
33880;SDS011;20172;47.530;10.256;2022-08-06T08:43:29;4.85;;;2.83;;
33880;SDS011;20172;47.530;10.256;2022-08-06T08:45:59;4.53;;;2.72;;
33880;SDS011;20172;47.530;10.256;2022-08-06T08:48:27;4.03;;;2.47;;
33880;SDS011;20172;47.530;10.256;2022-08-06T08:50:56;4.83;;;2.90;;
33880;SDS011;20172;47.530;10.256;2022-08-06T08:53:34;4.93;;;2.90;;
33880;SDS011;20172;47.530;10.256;2022-08-06T08:56:03;4.55;;;2.40;;
33880;SDS011;20172;47.530;10.256;2022-08-06T08:58:32;4.13;;;2.58;;
33880;SDS011;20172;47.530;10.256;2022-08-06T09:01:02;4.50;;;2.60;;
33880;SDS011;20172;47.530;10.256;2022-08-06T09:03:42;4.28;;;2.47;;
33880;SDS011;20172;47.530;10.256;2022-08-06T09:06:09;4.43;;;2.67;;
33880;SDS011;20172;47.530;10.256;2022-08-06T09:08:35;5.07;;;2.70;;
33880;SDS011;20172;47.530;10.256;2022-08-06T09:11:04;4.70;;;2.53;;
33880;SDS011;20172;47.530;10.256;2022-08-06T09:13:30;4.22;;;2.67;;
33880;SDS011;20172;47.530;10.256;2022-08-06T09:15:57;4.72;;;2.53;;
33880;SDS011;20172;47.530;10.256;2022-08-06T09:18:23;5.32;;;2.85;;
33880;SDS011;20172;47.530;10.256;2022-08-06T09:20:50;4.70;;;2.45;;
33880;SDS011;20172;47.530;10.256;2022-08-06T09:23:16;4.97;;;2.60;;
33880;SDS011;20172;47.530;10.256;2022-08-06T09:25:43;4.57;;;2.30;;
33880;SDS011;20172;47.530;10.256;2022-08-06T09:28:35;5.13;;;2.38;;
33880;SDS011;20172;47.530;10.256;2022-08-06T09:31:09;4.47;;;2.40;;
33880;SDS011;20172;47.530;10.256;2022-08-06T09:33:41;3.78;;;2.03;;
33880;SDS011;20172;47.530;10.256;2022-08-06T09:36:12;3.50;;;2.00;;
33880;SDS011;20172;47.530;10.256;2022-08-06T09:41:13;6.00;;;2.20;;
33880;SDS011;20172;47.530;10.256;2022-08-06T11:13:28;9.73;;;7.55;;
33880;SDS011;20172;47.530;10.256;2022-08-06T11:15:57;9.55;;;8.07;;
33880;SDS011;20172;47.530;10.256;2022-08-06T11:18:23;10.75;;;8.10;;
33880;SDS011;20172;47.530;10.256;2022-08-06T11:20:50;9.53;;;7.70;;
33880;SDS011;20172;47.530;10.256;2022-08-06T12:12:41;6.95;;;4.75;;
33880;SDS011;20172;47.530;10.256;2022-08-06T13:00:21;10.80;;;7.75;;
33880;SDS011;20172;47.530;10.256;2022-08-06T13:02:48;11.27;;;7.77;;
33880;SDS011;20172;47.530;10.256;2022-08-06T13:40:12;16.67;;;14.93;;
33880;SDS011;20172;47.530;10.256;2022-08-06T15:03:44;24.38;;;21.88;;
33880;SDS011;20172;47.530;10.256;2022-08-06T15:15:53;22.60;;;20.40;;
33880;SDS011;20172;47.530;10.256;2022-08-06T15:57:10;15.27;;;13.67;;
33880;SDS011;20172;47.530;10.256;2022-08-06T15:59:35;14.37;;;12.87;;
33880;SDS011;20172;47.530;10.256;2022-08-06T16:02:01;14.02;;;12.65;;
33880;SDS011;20172;47.530;10.256;2022-08-06T16:04:27;13.33;;;11.93;;
33880;SDS011;20172;47.530;10.256;2022-08-06T16:06:53;12.65;;;11.27;;
33880;SDS011;20172;47.530;10.256;2022-08-06T16:09:20;13.55;;;11.15;;
33880;SDS011;20172;47.530;10.256;2022-08-06T16:11:46;12.47;;;11.20;;
33880;SDS011;20172;47.530;10.256;2022-08-06T16:14:12;13.93;;;11.10;;
33880;SDS011;20172;47.530;10.256;2022-08-06T16:16:37;10.85;;;9.75;;
33880;SDS011;20172;47.530;10.256;2022-08-06T16:19:04;10.60;;;9.50;;
33880;SDS011;20172;47.530;10.256;2022-08-06T16:21:31;11.73;;;10.27;;
33880;SDS011;20172;47.530;10.256;2022-08-06T16:23:58;13.23;;;10.23;;
33880;SDS011;20172;47.530;10.256;2022-08-06T16:26:25;10.27;;;9.27;;
33880;SDS011;20172;47.530;10.256;2022-08-06T16:28:51;12.65;;;10.52;;
33880;SDS011;20172;47.530;10.256;2022-08-06T16:31:17;11.18;;;10.02;;
33880;SDS011;20172;47.530;10.256;2022-08-06T16:33:45;11.60;;;9.67;;
33880;SDS011;20172;47.530;10.256;2022-08-06T16:36:14;9.90;;;8.90;;
33880;SDS011;20172;47.530;10.256;2022-08-06T16:38:40;10.90;;;9.77;;
33880;SDS011;20172;47.530;10.256;2022-08-06T16:41:06;10.93;;;9.50;;
33880;SDS011;20172;47.530;10.256;2022-08-06T16:43:31;12.18;;;10.30;;
33880;SDS011;20172;47.530;10.256;2022-08-06T16:45:57;11.07;;;8.48;;
33880;SDS011;20172;47.530;10.256;2022-08-06T16:48:23;11.77;;;9.27;;
33880;SDS011;20172;47.530;10.256;2022-08-06T16:50:49;9.38;;;8.38;;
33880;SDS011;20172;47.530;10.256;2022-08-06T16:53:15;11.50;;;9.17;;
33880;SDS011;20172;47.530;10.256;2022-08-06T16:55:43;10.23;;;8.20;;
33880;SDS011;20172;47.530;10.256;2022-08-06T16:58:09;11.23;;;8.85;;
33880;SDS011;20172;47.530;10.256;2022-08-06T17:00:34;8.95;;;7.93;;
33880;SDS011;20172;47.530;10.256;2022-08-06T17:03:01;10.27;;;9.07;;
33880;SDS011;20172;47.530;10.256;2022-08-06T17:05:28;8.65;;;7.72;;
33880;SDS011;20172;47.530;10.256;2022-08-06T17:07:54;10.13;;;8.60;;
33880;SDS011;20172;47.530;10.256;2022-08-06T17:10:20;9.40;;;7.82;;
33880;SDS011;20172;47.530;10.256;2022-08-06T17:12:46;9.73;;;7.43;;
33880;SDS011;20172;47.530;10.256;2022-08-06T17:15:15;9.10;;;7.57;;
33880;SDS011;20172;47.530;10.256;2022-08-06T17:17:45;9.07;;;7.20;;
33880;SDS011;20172;47.530;10.256;2022-08-06T17:20:15;8.82;;;7.15;;
33880;SDS011;20172;47.530;10.256;2022-08-06T17:22:46;8.05;;;6.88;;
33880;SDS011;20172;47.530;10.256;2022-08-06T17:25:12;7.78;;;6.97;;
33880;SDS011;20172;47.530;10.256;2022-08-06T17:27:42;8.47;;;7.03;;
33880;SDS011;20172;47.530;10.256;2022-08-06T17:30:09;8.40;;;6.40;;
33880;SDS011;20172;47.530;10.256;2022-08-06T17:32:37;8.13;;;6.45;;
33880;SDS011;20172;47.530;10.256;2022-08-06T17:35:08;8.95;;;7.05;;
33880;SDS011;20172;47.530;10.256;2022-08-06T17:37:42;8.98;;;6.85;;
33880;SDS011;20172;47.530;10.256;2022-08-06T17:40:14;10.85;;;6.72;;
33880;SDS011;20172;47.530;10.256;2022-08-06T17:42:48;9.53;;;6.93;;
33880;SDS011;20172;47.530;10.256;2022-08-06T17:45:14;8.10;;;7.10;;
33880;SDS011;20172;47.530;10.256;2022-08-06T17:47:40;8.27;;;7.30;;
33880;SDS011;20172;47.530;10.256;2022-08-06T17:50:06;9.65;;;7.53;;
33880;SDS011;20172;47.530;10.256;2022-08-06T17:52:32;9.10;;;6.93;;
33880;SDS011;20172;47.530;10.256;2022-08-06T17:54:57;8.33;;;6.33;;
33880;SDS011;20172;47.530;10.256;2022-08-06T17:57:23;7.55;;;6.53;;
33880;SDS011;20172;47.530;10.256;2022-08-06T17:59:49;7.47;;;6.18;;
33880;SDS011;20172;47.530;10.256;2022-08-06T18:02:16;8.07;;;6.50;;
33880;SDS011;20172;47.530;10.256;2022-08-06T18:04:41;8.38;;;6.70;;
33880;SDS011;20172;47.530;10.256;2022-08-06T18:07:07;8.27;;;6.45;;
33880;SDS011;20172;47.530;10.256;2022-08-06T18:09:34;10.00;;;6.72;;
33880;SDS011;20172;47.530;10.256;2022-08-06T18:12:00;9.50;;;7.28;;
33880;SDS011;20172;47.530;10.256;2022-08-06T18:14:29;12.02;;;7.47;;
33880;SDS011;20172;47.530;10.256;2022-08-06T18:16:55;11.63;;;6.85;;
33880;SDS011;20172;47.530;10.256;2022-08-06T18:19:20;7.32;;;5.95;;
33880;SDS011;20172;47.530;10.256;2022-08-06T18:21:46;8.17;;;6.93;;
33880;SDS011;20172;47.530;10.256;2022-08-06T18:24:12;8.83;;;7.03;;
33880;SDS011;20172;47.530;10.256;2022-08-06T18:26:37;10.80;;;7.45;;
33880;SDS011;20172;47.530;10.256;2022-08-06T18:29:03;8.00;;;6.57;;
33880;SDS011;20172;47.530;10.256;2022-08-06T18:31:29;7.68;;;6.70;;
33880;SDS011;20172;47.530;10.256;2022-08-06T18:33:55;10.18;;;7.40;;
33880;SDS011;20172;47.530;10.256;2022-08-06T18:36:21;8.45;;;6.93;;
33880;SDS011;20172;47.530;10.256;2022-08-06T18:38:48;9.10;;;7.38;;
33880;SDS011;20172;47.530;10.256;2022-08-06T18:41:13;8.83;;;7.60;;
33880;SDS011;20172;47.530;10.256;2022-08-06T18:43:39;8.50;;;7.05;;
33880;SDS011;20172;47.530;10.256;2022-08-06T18:46:06;9.30;;;7.15;;
33880;SDS011;20172;47.530;10.256;2022-08-06T18:48:32;9.07;;;8.07;;
33880;SDS011;20172;47.530;10.256;2022-08-06T18:50:58;9.77;;;7.82;;
33880;SDS011;20172;47.530;10.256;2022-08-06T18:53:24;10.57;;;7.97;;
33880;SDS011;20172;47.530;10.256;2022-08-06T18:55:50;10.00;;;8.80;;
33880;SDS011;20172;47.530;10.256;2022-08-06T18:58:15;8.93;;;7.73;;
33880;SDS011;20172;47.530;10.256;2022-08-06T19:00:41;9.48;;;8.25;;
33880;SDS011;20172;47.530;10.256;2022-08-06T19:03:08;8.40;;;7.43;;
33880;SDS011;20172;47.530;10.256;2022-08-06T19:05:34;10.57;;;8.70;;
33880;SDS011;20172;47.530;10.256;2022-08-06T19:08:00;10.07;;;8.75;;
33880;SDS011;20172;47.530;10.256;2022-08-06T19:10:27;12.83;;;9.50;;
33880;SDS011;20172;47.530;10.256;2022-08-06T19:12:54;11.57;;;10.10;;
33880;SDS011;20172;47.530;10.256;2022-08-06T19:15:20;10.47;;;9.37;;
33880;SDS011;20172;47.530;10.256;2022-08-06T19:17:46;14.67;;;9.57;;
33880;SDS011;20172;47.530;10.256;2022-08-06T19:20:13;10.93;;;9.63;;
33880;SDS011;20172;47.530;10.256;2022-08-06T19:22:40;11.32;;;9.68;;
33880;SDS011;20172;47.530;10.256;2022-08-06T19:25:06;12.23;;;10.87;;
33880;SDS011;20172;47.530;10.256;2022-08-06T19:27:32;12.30;;;11.00;;
33880;SDS011;20172;47.530;10.256;2022-08-06T19:29:58;11.43;;;10.23;;
33880;SDS011;20172;47.530;10.256;2022-08-06T19:32:24;11.82;;;10.35;;
33880;SDS011;20172;47.530;10.256;2022-08-06T19:34:49;12.50;;;10.63;;
33880;SDS011;20172;47.530;10.256;2022-08-06T19:37:17;12.50;;;10.80;;
33880;SDS011;20172;47.530;10.256;2022-08-06T19:39:43;12.53;;;11.23;;
33880;SDS011;20172;47.530;10.256;2022-08-06T19:42:10;14.18;;;12.38;;
33880;SDS011;20172;47.530;10.256;2022-08-06T19:44:38;14.37;;;12.33;;
33880;SDS011;20172;47.530;10.256;2022-08-06T19:47:04;14.02;;;11.90;;
33880;SDS011;20172;47.530;10.256;2022-08-06T19:49:31;14.60;;;12.52;;
33880;SDS011;20172;47.530;10.256;2022-08-06T19:51:57;15.50;;;12.70;;
33880;SDS011;20172;47.530;10.256;2022-08-06T19:54:22;14.70;;;13.30;;
33880;SDS011;20172;47.530;10.256;2022-08-06T19:56:48;14.63;;;13.13;;
33880;SDS011;20172;47.530;10.256;2022-08-06T19:59:14;14.63;;;13.13;;
33880;SDS011;20172;47.530;10.256;2022-08-06T20:01:40;15.85;;;13.40;;
33880;SDS011;20172;47.530;10.256;2022-08-06T20:04:06;14.43;;;12.95;;
33880;SDS011;20172;47.530;10.256;2022-08-06T20:06:31;18.20;;;13.17;;
33880;SDS011;20172;47.530;10.256;2022-08-06T20:08:57;14.98;;;12.75;;
33880;SDS011;20172;47.530;10.256;2022-08-06T20:11:23;15.30;;;13.85;;
33880;SDS011;20172;47.530;10.256;2022-08-06T20:13:50;15.10;;;13.23;;
33880;SDS011;20172;47.530;10.256;2022-08-06T20:16:15;15.30;;;13.77;;
33880;SDS011;20172;47.530;10.256;2022-08-06T20:18:42;16.42;;;14.63;;
33880;SDS011;20172;47.530;10.256;2022-08-06T20:21:08;15.98;;;14.45;;
33880;SDS011;20172;47.530;10.256;2022-08-06T20:23:34;15.35;;;13.63;;
33880;SDS011;20172;47.530;10.256;2022-08-06T20:26:00;13.63;;;12.10;;
33880;SDS011;20172;47.530;10.256;2022-08-06T22:08:12;12.67;;;11.47;;
33880;SDS011;20172;47.530;10.256;2022-08-06T22:13:04;13.00;;;11.68;;
33880;SDS011;20172;47.530;10.256;2022-08-06T22:15:30;12.98;;;11.07;;
33880;SDS011;20172;47.530;10.256;2022-08-06T22:17:56;13.17;;;11.77;;
33880;SDS011;20172;47.530;10.256;2022-08-06T22:20:22;12.43;;;10.57;;
33880;SDS011;20172;47.530;10.256;2022-08-06T22:22:52;11.95;;;10.77;;
33880;SDS011;20172;47.530;10.256;2022-08-06T22:25:20;10.77;;;9.68;;
33880;SDS011;20172;47.530;10.256;2022-08-06T22:27:47;10.98;;;9.82;;
33880;SDS011;20172;47.530;10.256;2022-08-06T22:30:13;10.43;;;9.32;;
33880;SDS011;20172;47.530;10.256;2022-08-06T22:33:19;12.25;;;10.68;;
33880;SDS011;20172;47.530;10.256;2022-08-06T22:35:46;10.82;;;9.73;;
33880;SDS011;20172;47.530;10.256;2022-08-06T22:38:13;12.25;;;10.98;;
33880;SDS011;20172;47.530;10.256;2022-08-06T22:40:40;12.73;;;11.43;;